sensor_id;sensor_type;location;lat;lon;timestamp;temperature;humidity
16271;DHT22;8243;49.048;8.396;2023-05-06T00:00:03;14.80;99.90
16271;DHT22;8243;49.048;8.396;2023-05-06T00:02:30;14.80;99.90
16271;DHT22;8243;49.048;8.396;2023-05-06T00:04:56;14.80;99.90
16271;DHT22;8243;49.048;8.396;2023-05-06T00:07:22;14.80;99.90
16271;DHT22;8243;49.048;8.396;2023-05-06T00:09:48;14.80;99.90
16271;DHT22;8243;49.048;8.396;2023-05-06T00:12:14;14.80;99.90
16271;DHT22;8243;49.048;8.396;2023-05-06T00:14:40;14.80;99.90
16271;DHT22;8243;49.048;8.396;2023-05-06T00:17:06;14.90;99.90
16271;DHT22;8243;49.048;8.396;2023-05-06T00:19:31;14.80;99.90
16271;DHT22;8243;49.048;8.396;2023-05-06T00:21:57;14.80;99.90
16271;DHT22;8243;49.048;8.396;2023-05-06T00:24:23;14.80;99.90
16271;DHT22;8243;49.048;8.396;2023-05-06T00:26:49;14.80;99.90
16271;DHT22;8243;49.048;8.396;2023-05-06T00:29:15;14.80;99.90
16271;DHT22;8243;49.048;8.396;2023-05-06T00:31:41;14.70;99.90
16271;DHT22;8243;49.048;8.396;2023-05-06T00:34:07;14.80;99.90
16271;DHT22;8243;49.048;8.396;2023-05-06T00:36:33;14.70;99.90
16271;DHT22;8243;49.048;8.396;2023-05-06T00:38:59;14.70;99.90
16271;DHT22;8243;49.048;8.396;2023-05-06T00:41:24;14.70;99.90
16271;DHT22;8243;49.048;8.396;2023-05-06T00:43:54;14.70;99.90
16271;DHT22;8243;49.048;8.396;2023-05-06T00:46:20;14.70;99.90
16271;DHT22;8243;49.048;8.396;2023-05-06T00:48:46;14.60;99.90
16271;DHT22;8243;49.048;8.396;2023-05-06T00:51:11;14.60;99.90
16271;DHT22;8243;49.048;8.396;2023-05-06T00:53:37;14.60;99.90
16271;DHT22;8243;49.048;8.396;2023-05-06T00:56:04;14.60;99.90
16271;DHT22;8243;49.048;8.396;2023-05-06T00:58:31;14.50;99.90
16271;DHT22;8243;49.048;8.396;2023-05-06T01:00:57;14.50;99.90
16271;DHT22;8243;49.048;8.396;2023-05-06T01:03:23;14.40;99.90
16271;DHT22;8243;49.048;8.396;2023-05-06T01:06:16;14.40;99.90
16271;DHT22;8243;49.048;8.396;2023-05-06T01:09:04;14.30;99.90
16271;DHT22;8243;49.048;8.396;2023-05-06T01:11:55;14.20;99.90
16271;DHT22;8243;49.048;8.396;2023-05-06T01:17:09;14.00;99.90
16271;DHT22;8243;49.048;8.396;2023-05-06T01:19:40;13.90;99.90
16271;DHT22;8243;49.048;8.396;2023-05-06T01:22:09;13.80;99.90
16271;DHT22;8243;49.048;8.396;2023-05-06T01:24:43;13.70;99.90
16271;DHT22;8243;49.048;8.396;2023-05-06T01:27:10;13.70;99.90
16271;DHT22;8243;49.048;8.396;2023-05-06T01:29:37;13.70;99.90
16271;DHT22;8243;49.048;8.396;2023-05-06T01:38:16;13.40;99.90
16271;DHT22;8243;49.048;8.396;2023-05-06T01:40:47;13.30;99.90
16271;DHT22;8243;49.048;8.396;2023-05-06T01:43:15;13.30;99.90
16271;DHT22;8243;49.048;8.396;2023-05-06T01:45:41;13.10;99.90
16271;DHT22;8243;49.048;8.396;2023-05-06T01:48:08;13.10;99.90
16271;DHT22;8243;49.048;8.396;2023-05-06T01:50:34;13.00;99.90
16271;DHT22;8243;49.048;8.396;2023-05-06T01:53:02;13.00;99.90
16271;DHT22;8243;49.048;8.396;2023-05-06T01:55:28;13.00;99.90
16271;DHT22;8243;49.048;8.396;2023-05-06T01:57:54;13.00;99.90
16271;DHT22;8243;49.048;8.396;2023-05-06T02:00:22;12.90;99.90
16271;DHT22;8243;49.048;8.396;2023-05-06T02:02:49;13.00;99.90
16271;DHT22;8243;49.048;8.396;2023-05-06T02:05:15;13.00;99.90
16271;DHT22;8243;49.048;8.396;2023-05-06T02:07:40;12.90;99.90
16271;DHT22;8243;49.048;8.396;2023-05-06T02:10:06;13.00;99.90
16271;DHT22;8243;49.048;8.396;2023-05-06T02:12:33;12.90;99.90
16271;DHT22;8243;49.048;8.396;2023-05-06T02:14:58;13.00;99.90
16271;DHT22;8243;49.048;8.396;2023-05-06T02:17:24;13.00;99.90
16271;DHT22;8243;49.048;8.396;2023-05-06T02:19:50;13.00;99.90
16271;DHT22;8243;49.048;8.396;2023-05-06T02:22:16;13.00;99.90
16271;DHT22;8243;49.048;8.396;2023-05-06T02:24:42;13.00;99.90
16271;DHT22;8243;49.048;8.396;2023-05-06T02:27:07;13.10;99.90
16271;DHT22;8243;49.048;8.396;2023-05-06T02:29:33;13.00;99.90
16271;DHT22;8243;49.048;8.396;2023-05-06T02:31:58;13.00;99.90
16271;DHT22;8243;49.048;8.396;2023-05-06T02:34:24;13.00;99.90
16271;DHT22;8243;49.048;8.396;2023-05-06T02:36:50;13.10;99.90
16271;DHT22;8243;49.048;8.396;2023-05-06T02:39:15;13.00;99.90
16271;DHT22;8243;49.048;8.396;2023-05-06T02:41:41;13.10;99.90
16271;DHT22;8243;49.048;8.396;2023-05-06T02:44:08;13.00;99.90
16271;DHT22;8243;49.048;8.396;2023-05-06T02:46:35;13.00;99.90
16271;DHT22;8243;49.048;8.396;2023-05-06T02:49:00;12.90;99.90
16271;DHT22;8243;49.048;8.396;2023-05-06T02:51:26;12.90;99.90
16271;DHT22;8243;49.048;8.396;2023-05-06T02:53:52;12.90;99.90
16271;DHT22;8243;49.048;8.396;2023-05-06T02:56:17;12.70;99.90
16271;DHT22;8243;49.048;8.396;2023-05-06T02:58:44;12.60;99.90
16271;DHT22;8243;49.048;8.396;2023-05-06T03:01:10;12.50;99.90
16271;DHT22;8243;49.048;8.396;2023-05-06T03:03:36;12.50;99.90
16271;DHT22;8243;49.048;8.396;2023-05-06T03:06:02;12.40;99.90
16271;DHT22;8243;49.048;8.396;2023-05-06T03:08:27;12.40;99.90
16271;DHT22;8243;49.048;8.396;2023-05-06T03:10:53;12.40;99.90
16271;DHT22;8243;49.048;8.396;2023-05-06T03:13:18;12.20;99.90
16271;DHT22;8243;49.048;8.396;2023-05-06T03:15:44;12.20;99.90
16271;DHT22;8243;49.048;8.396;2023-05-06T03:18:09;12.10;99.90
16271;DHT22;8243;49.048;8.396;2023-05-06T03:20:38;12.00;99.90
16271;DHT22;8243;49.048;8.396;2023-05-06T03:23:04;12.10;99.90
16271;DHT22;8243;49.048;8.396;2023-05-06T03:25:30;12.10;99.90
16271;DHT22;8243;49.048;8.396;2023-05-06T03:27:55;12.00;99.90
16271;DHT22;8243;49.048;8.396;2023-05-06T03:30:21;11.90;99.90
16271;DHT22;8243;49.048;8.396;2023-05-06T03:32:47;11.90;99.90
16271;DHT22;8243;49.048;8.396;2023-05-06T03:35:13;11.90;99.90
16271;DHT22;8243;49.048;8.396;2023-05-06T03:37:39;11.90;99.90
16271;DHT22;8243;49.048;8.396;2023-05-06T03:40:05;11.80;99.90
16271;DHT22;8243;49.048;8.396;2023-05-06T03:42:31;11.80;99.90
16271;DHT22;8243;49.048;8.396;2023-05-06T03:44:58;11.80;99.90
16271;DHT22;8243;49.048;8.396;2023-05-06T03:47:23;11.80;99.90
16271;DHT22;8243;49.048;8.396;2023-05-06T03:49:49;11.70;99.90
16271;DHT22;8243;49.048;8.396;2023-05-06T03:52:15;11.70;99.90
16271;DHT22;8243;49.048;8.396;2023-05-06T03:54:42;11.70;99.90
16271;DHT22;8243;49.048;8.396;2023-05-06T03:57:09;11.70;99.90
16271;DHT22;8243;49.048;8.396;2023-05-06T03:59:35;11.60;99.90
16271;DHT22;8243;49.048;8.396;2023-05-06T04:02:01;11.70;99.90
16271;DHT22;8243;49.048;8.396;2023-05-06T04:04:26;11.60;99.90
16271;DHT22;8243;49.048;8.396;2023-05-06T04:06:52;11.60;99.90
16271;DHT22;8243;49.048;8.396;2023-05-06T04:09:18;11.60;99.90
16271;DHT22;8243;49.048;8.396;2023-05-06T04:11:43;11.60;99.90
16271;DHT22;8243;49.048;8.396;2023-05-06T04:14:09;11.70;99.90
16271;DHT22;8243;49.048;8.396;2023-05-06T04:16:35;11.80;99.90
16271;DHT22;8243;49.048;8.396;2023-05-06T04:19:00;11.90;99.90
16271;DHT22;8243;49.048;8.396;2023-05-06T04:21:28;12.00;99.90
16271;DHT22;8243;49.048;8.396;2023-05-06T04:23:54;12.10;99.90
16271;DHT22;8243;49.048;8.396;2023-05-06T04:26:20;12.20;99.90
16271;DHT22;8243;49.048;8.396;2023-05-06T04:28:46;12.50;99.90
16271;DHT22;8243;49.048;8.396;2023-05-06T04:31:13;12.80;99.90
16271;DHT22;8243;49.048;8.396;2023-05-06T04:33:39;13.20;99.90
16271;DHT22;8243;49.048;8.396;2023-05-06T04:36:05;13.60;99.90
16271;DHT22;8243;49.048;8.396;2023-05-06T04:38:31;14.10;99.90
16271;DHT22;8243;49.048;8.396;2023-05-06T04:40:57;14.60;99.90
16271;DHT22;8243;49.048;8.396;2023-05-06T04:43:25;15.10;99.90
16271;DHT22;8243;49.048;8.396;2023-05-06T04:45:52;15.40;99.90
16271;DHT22;8243;49.048;8.396;2023-05-06T04:48:20;15.50;99.90
16271;DHT22;8243;49.048;8.396;2023-05-06T04:50:49;16.00;99.90
16271;DHT22;8243;49.048;8.396;2023-05-06T04:53:15;16.60;99.90
16271;DHT22;8243;49.048;8.396;2023-05-06T04:55:41;17.20;99.90
16271;DHT22;8243;49.048;8.396;2023-05-06T04:58:07;17.20;99.90
16271;DHT22;8243;49.048;8.396;2023-05-06T05:00:33;16.90;99.90
16271;DHT22;8243;49.048;8.396;2023-05-06T05:02:59;17.30;99.90
16271;DHT22;8243;49.048;8.396;2023-05-06T05:05:27;18.00;99.90
16271;DHT22;8243;49.048;8.396;2023-05-06T05:07:54;18.60;99.90
16271;DHT22;8243;49.048;8.396;2023-05-06T05:10:19;18.80;99.90
16271;DHT22;8243;49.048;8.396;2023-05-06T05:12:45;19.20;99.90
16271;DHT22;8243;49.048;8.396;2023-05-06T05:15:11;19.30;99.90
16271;DHT22;8243;49.048;8.396;2023-05-06T05:17:37;20.10;99.90
16271;DHT22;8243;49.048;8.396;2023-05-06T05:20:03;21.10;99.90
16271;DHT22;8243;49.048;8.396;2023-05-06T05:22:30;21.60;99.90
16271;DHT22;8243;49.048;8.396;2023-05-06T05:25:02;22.30;99.90
16271;DHT22;8243;49.048;8.396;2023-05-06T05:27:28;22.50;99.20
16271;DHT22;8243;49.048;8.396;2023-05-06T05:29:56;22.30;93.40
16271;DHT22;8243;49.048;8.396;2023-05-06T05:32:22;22.10;90.00
16271;DHT22;8243;49.048;8.396;2023-05-06T05:34:51;22.10;80.80
16271;DHT22;8243;49.048;8.396;2023-05-06T05:37:17;21.90;75.60
16271;DHT22;8243;49.048;8.396;2023-05-06T05:39:43;22.10;72.80
16271;DHT22;8243;49.048;8.396;2023-05-06T05:42:08;22.70;62.90
16271;DHT22;8243;49.048;8.396;2023-05-06T05:44:34;23.10;57.10
16271;DHT22;8243;49.048;8.396;2023-05-06T05:47:01;23.30;51.10
16271;DHT22;8243;49.048;8.396;2023-05-06T05:49:27;23.30;48.20
16271;DHT22;8243;49.048;8.396;2023-05-06T05:51:54;23.00;47.50
16271;DHT22;8243;49.048;8.396;2023-05-06T05:54:23;22.40;48.30
16271;DHT22;8243;49.048;8.396;2023-05-06T05:56:49;22.30;48.00
16271;DHT22;8243;49.048;8.396;2023-05-06T05:59:15;22.40;48.70
16271;DHT22;8243;49.048;8.396;2023-05-06T06:01:40;22.70;46.50
16271;DHT22;8243;49.048;8.396;2023-05-06T06:04:06;22.60;45.80
16271;DHT22;8243;49.048;8.396;2023-05-06T06:06:32;22.90;44.00
16271;DHT22;8243;49.048;8.396;2023-05-06T06:08:58;23.10;42.40
16271;DHT22;8243;49.048;8.396;2023-05-06T06:11:23;23.30;40.00
16271;DHT22;8243;49.048;8.396;2023-05-06T06:13:51;23.40;39.10
16271;DHT22;8243;49.048;8.396;2023-05-06T06:16:16;23.40;38.20
16271;DHT22;8243;49.048;8.396;2023-05-06T06:18:42;23.20;38.50
16271;DHT22;8243;49.048;8.396;2023-05-06T06:21:08;22.80;38.30
16271;DHT22;8243;49.048;8.396;2023-05-06T06:23:34;22.10;43.10
16271;DHT22;8243;49.048;8.396;2023-05-06T06:26:02;22.60;41.40
16271;DHT22;8243;49.048;8.396;2023-05-06T06:28:28;22.80;39.10
16271;DHT22;8243;49.048;8.396;2023-05-06T06:30:53;23.30;37.80
16271;DHT22;8243;49.048;8.396;2023-05-06T06:33:19;23.70;35.20
16271;DHT22;8243;49.048;8.396;2023-05-06T06:35:45;24.30;31.70
16271;DHT22;8243;49.048;8.396;2023-05-06T06:38:10;24.00;31.90
16271;DHT22;8243;49.048;8.396;2023-05-06T06:40:36;24.40;30.10
16271;DHT22;8243;49.048;8.396;2023-05-06T06:43:02;24.90;28.70
16271;DHT22;8243;49.048;8.396;2023-05-06T06:45:28;25.00;27.90
16271;DHT22;8243;49.048;8.396;2023-05-06T06:47:53;25.10;26.60
16271;DHT22;8243;49.048;8.396;2023-05-06T06:50:19;24.80;27.20
16271;DHT22;8243;49.048;8.396;2023-05-06T06:52:44;25.00;26.40
16271;DHT22;8243;49.048;8.396;2023-05-06T06:55:10;24.90;25.10
16271;DHT22;8243;49.048;8.396;2023-05-06T06:57:37;25.00;25.90
16271;DHT22;8243;49.048;8.396;2023-05-06T07:00:03;24.60;25.40
16271;DHT22;8243;49.048;8.396;2023-05-06T07:02:29;25.10;26.10
16271;DHT22;8243;49.048;8.396;2023-05-06T07:04:55;25.00;25.20
16271;DHT22;8243;49.048;8.396;2023-05-06T07:07:20;25.20;24.30
16271;DHT22;8243;49.048;8.396;2023-05-06T07:09:46;24.00;26.50
16271;DHT22;8243;49.048;8.396;2023-05-06T07:12:12;23.10;29.90
16271;DHT22;8243;49.048;8.396;2023-05-06T07:14:37;23.00;30.60
16271;DHT22;8243;49.048;8.396;2023-05-06T07:17:03;22.90;30.90
16271;DHT22;8243;49.048;8.396;2023-05-06T07:19:29;23.00;30.90
16271;DHT22;8243;49.048;8.396;2023-05-06T07:21:56;23.10;31.10
16271;DHT22;8243;49.048;8.396;2023-05-06T07:24:22;23.60;29.70
16271;DHT22;8243;49.048;8.396;2023-05-06T07:26:48;24.10;28.20
16271;DHT22;8243;49.048;8.396;2023-05-06T07:29:13;24.60;26.60
16271;DHT22;8243;49.048;8.396;2023-05-06T07:31:39;25.00;24.00
16271;DHT22;8243;49.048;8.396;2023-05-06T07:34:05;25.30;23.90
16271;DHT22;8243;49.048;8.396;2023-05-06T07:36:33;26.00;22.10
16271;DHT22;8243;49.048;8.396;2023-05-06T07:39:08;25.30;21.30
16271;DHT22;8243;49.048;8.396;2023-05-06T07:41:34;25.00;21.30
16271;DHT22;8243;49.048;8.396;2023-05-06T07:43:59;24.50;21.70
16271;DHT22;8243;49.048;8.396;2023-05-06T07:46:25;24.30;23.10
16271;DHT22;8243;49.048;8.396;2023-05-06T07:48:51;24.40;22.60
16271;DHT22;8243;49.048;8.396;2023-05-06T07:51:16;23.70;22.90
16271;DHT22;8243;49.048;8.396;2023-05-06T07:53:43;23.50;24.70
16271;DHT22;8243;49.048;8.396;2023-05-06T07:56:09;23.50;24.00
16271;DHT22;8243;49.048;8.396;2023-05-06T07:58:34;24.40;21.90
16271;DHT22;8243;49.048;8.396;2023-05-06T08:01:00;25.60;20.60
16271;DHT22;8243;49.048;8.396;2023-05-06T08:03:26;26.50;19.10
16271;DHT22;8243;49.048;8.396;2023-05-06T08:05:52;26.70;17.30
16271;DHT22;8243;49.048;8.396;2023-05-06T08:08:19;25.50;17.60
16271;DHT22;8243;49.048;8.396;2023-05-06T08:10:46;24.60;19.00
16271;DHT22;8243;49.048;8.396;2023-05-06T08:13:11;24.30;21.20
16271;DHT22;8243;49.048;8.396;2023-05-06T08:15:38;24.40;20.50
16271;DHT22;8243;49.048;8.396;2023-05-06T08:18:05;24.70;19.30
16271;DHT22;8243;49.048;8.396;2023-05-06T08:20:31;24.70;20.60
16271;DHT22;8243;49.048;8.396;2023-05-06T08:22:56;24.90;19.60
16271;DHT22;8243;49.048;8.396;2023-05-06T08:25:22;24.80;20.50
16271;DHT22;8243;49.048;8.396;2023-05-06T08:27:48;25.10;19.70
16271;DHT22;8243;49.048;8.396;2023-05-06T08:30:14;25.70;19.00
16271;DHT22;8243;49.048;8.396;2023-05-06T08:32:40;26.00;17.20
16271;DHT22;8243;49.048;8.396;2023-05-06T08:35:08;26.90;15.70
16271;DHT22;8243;49.048;8.396;2023-05-06T08:37:34;26.90;14.50
16271;DHT22;8243;49.048;8.396;2023-05-06T08:40:00;25.00;16.50
16271;DHT22;8243;49.048;8.396;2023-05-06T08:42:27;24.20;18.10
16271;DHT22;8243;49.048;8.396;2023-05-06T08:44:55;24.00;19.20
16271;DHT22;8243;49.048;8.396;2023-05-06T08:47:22;23.70;20.40
16271;DHT22;8243;49.048;8.396;2023-05-06T08:49:48;23.40;20.50
16271;DHT22;8243;49.048;8.396;2023-05-06T08:52:13;23.20;20.40
16271;DHT22;8243;49.048;8.396;2023-05-06T08:54:40;23.10;20.00
16271;DHT22;8243;49.048;8.396;2023-05-06T08:57:09;23.40;20.50
16271;DHT22;8243;49.048;8.396;2023-05-06T08:59:35;24.10;18.20
16271;DHT22;8243;49.048;8.396;2023-05-06T09:02:02;24.90;17.60
16271;DHT22;8243;49.048;8.396;2023-05-06T09:04:29;25.80;14.40
16271;DHT22;8243;49.048;8.396;2023-05-06T09:06:57;25.70;14.30
16271;DHT22;8243;49.048;8.396;2023-05-06T09:09:23;25.20;14.00
16271;DHT22;8243;49.048;8.396;2023-05-06T09:11:49;25.30;15.70
16271;DHT22;8243;49.048;8.396;2023-05-06T09:14:21;25.90;13.20
16271;DHT22;8243;49.048;8.396;2023-05-06T09:16:50;25.60;13.40
16271;DHT22;8243;49.048;8.396;2023-05-06T09:19:16;25.90;14.40
16271;DHT22;8243;49.048;8.396;2023-05-06T09:21:44;26.10;13.10
16271;DHT22;8243;49.048;8.396;2023-05-06T09:24:12;26.80;12.60
16271;DHT22;8243;49.048;8.396;2023-05-06T09:26:40;27.30;12.70
16271;DHT22;8243;49.048;8.396;2023-05-06T09:29:06;26.90;12.00
16271;DHT22;8243;49.048;8.396;2023-05-06T09:31:31;26.70;11.00
16271;DHT22;8243;49.048;8.396;2023-05-06T09:33:59;26.10;11.80
16271;DHT22;8243;49.048;8.396;2023-05-06T09:36:26;26.20;11.60
16271;DHT22;8243;49.048;8.396;2023-05-06T09:38:53;26.00;11.90
16271;DHT22;8243;49.048;8.396;2023-05-06T09:41:20;25.00;12.70
16271;DHT22;8243;49.048;8.396;2023-05-06T09:43:47;24.80;14.10
16271;DHT22;8243;49.048;8.396;2023-05-06T09:46:17;24.80;14.30
16271;DHT22;8243;49.048;8.396;2023-05-06T09:48:44;24.50;14.60
16271;DHT22;8243;49.048;8.396;2023-05-06T09:51:10;24.80;13.70
16271;DHT22;8243;49.048;8.396;2023-05-06T09:53:37;24.40;14.00
16271;DHT22;8243;49.048;8.396;2023-05-06T09:56:05;25.20;12.60
16271;DHT22;8243;49.048;8.396;2023-05-06T09:58:31;25.00;13.50
16271;DHT22;8243;49.048;8.396;2023-05-06T10:00:58;25.10;12.50
16271;DHT22;8243;49.048;8.396;2023-05-06T10:03:24;25.90;12.10
16271;DHT22;8243;49.048;8.396;2023-05-06T10:05:53;25.90;12.70
16271;DHT22;8243;49.048;8.396;2023-05-06T10:08:23;25.30;12.50
16271;DHT22;8243;49.048;8.396;2023-05-06T10:10:49;24.60;13.00
16271;DHT22;8243;49.048;8.396;2023-05-06T10:13:16;24.40;13.90
16271;DHT22;8243;49.048;8.396;2023-05-06T10:15:44;25.00;12.60
16271;DHT22;8243;49.048;8.396;2023-05-06T10:18:16;25.80;12.00
16271;DHT22;8243;49.048;8.396;2023-05-06T10:20:43;26.40;10.40
16271;DHT22;8243;49.048;8.396;2023-05-06T10:23:12;27.20;9.50
16271;DHT22;8243;49.048;8.396;2023-05-06T10:25:41;26.90;9.10
16271;DHT22;8243;49.048;8.396;2023-05-06T10:28:09;26.40;10.10
16271;DHT22;8243;49.048;8.396;2023-05-06T10:30:37;26.90;10.40
16271;DHT22;8243;49.048;8.396;2023-05-06T10:33:05;27.60;9.10
16271;DHT22;8243;49.048;8.396;2023-05-06T10:35:51;27.90;7.90
16271;DHT22;8243;49.048;8.396;2023-05-06T10:38:27;27.80;7.50
16271;DHT22;8243;49.048;8.396;2023-05-06T10:40:54;26.90;9.80
16271;DHT22;8243;49.048;8.396;2023-05-06T10:48:30;26.10;10.90
16271;DHT22;8243;49.048;8.396;2023-05-06T10:53:56;26.70;9.50
16271;DHT22;8243;49.048;8.396;2023-05-06T10:56:23;26.20;10.20
16271;DHT22;8243;49.048;8.396;2023-05-06T10:58:49;26.30;10.80
16271;DHT22;8243;49.048;8.396;2023-05-06T11:01:15;26.70;10.00
16271;DHT22;8243;49.048;8.396;2023-05-06T11:03:43;26.70;10.20
16271;DHT22;8243;49.048;8.396;2023-05-06T11:06:09;27.00;8.40
16271;DHT22;8243;49.048;8.396;2023-05-06T11:08:35;26.50;9.10
16271;DHT22;8243;49.048;8.396;2023-05-06T11:11:00;26.10;8.60
16271;DHT22;8243;49.048;8.396;2023-05-06T11:13:51;26.10;8.40
16271;DHT22;8243;49.048;8.396;2023-05-06T11:16:51;25.60;9.90
16271;DHT22;8243;49.048;8.396;2023-05-06T11:19:28;25.60;11.40
16271;DHT22;8243;49.048;8.396;2023-05-06T11:21:56;25.30;11.60
16271;DHT22;8243;49.048;8.396;2023-05-06T11:24:42;25.40;12.30
16271;DHT22;8243;49.048;8.396;2023-05-06T11:27:09;26.00;10.40
16271;DHT22;8243;49.048;8.396;2023-05-06T11:29:35;26.10;9.50
16271;DHT22;8243;49.048;8.396;2023-05-06T11:32:02;26.30;9.30
16271;DHT22;8243;49.048;8.396;2023-05-06T11:34:30;26.50;8.80
16271;DHT22;8243;49.048;8.396;2023-05-06T11:37:01;27.10;7.60
16271;DHT22;8243;49.048;8.396;2023-05-06T11:39:29;25.80;9.50
16271;DHT22;8243;49.048;8.396;2023-05-06T11:42:03;25.40;9.20
16271;DHT22;8243;49.048;8.396;2023-05-06T11:44:37;25.80;10.90
16271;DHT22;8243;49.048;8.396;2023-05-06T11:47:05;26.40;10.50
16271;DHT22;8243;49.048;8.396;2023-05-06T11:49:39;26.70;9.70
16271;DHT22;8243;49.048;8.396;2023-05-06T11:52:10;26.80;9.00
16271;DHT22;8243;49.048;8.396;2023-05-06T11:54:38;27.00;9.60
16271;DHT22;8243;49.048;8.396;2023-05-06T11:57:05;27.00;7.90
16271;DHT22;8243;49.048;8.396;2023-05-06T11:59:35;26.80;7.80
16271;DHT22;8243;49.048;8.396;2023-05-06T12:02:10;26.60;8.50
16271;DHT22;8243;49.048;8.396;2023-05-06T12:04:40;26.70;7.50
16271;DHT22;8243;49.048;8.396;2023-05-06T12:07:09;26.80;8.00
16271;DHT22;8243;49.048;8.396;2023-05-06T12:09:36;26.50;7.30
16271;DHT22;8243;49.048;8.396;2023-05-06T12:12:03;25.40;8.60
16271;DHT22;8243;49.048;8.396;2023-05-06T12:14:29;24.90;9.10
16271;DHT22;8243;49.048;8.396;2023-05-06T12:16:55;24.30;10.30
16271;DHT22;8243;49.048;8.396;2023-05-06T12:19:21;23.80;10.90
16271;DHT22;8243;49.048;8.396;2023-05-06T12:21:47;23.30;11.60
16271;DHT22;8243;49.048;8.396;2023-05-06T12:24:13;23.30;12.10
16271;DHT22;8243;49.048;8.396;2023-05-06T12:26:46;23.10;11.70
16271;DHT22;8243;49.048;8.396;2023-05-06T12:29:16;22.90;12.60
16271;DHT22;8243;49.048;8.396;2023-05-06T12:31:43;23.60;12.90
16271;DHT22;8243;49.048;8.396;2023-05-06T12:34:12;23.70;11.50
16271;DHT22;8243;49.048;8.396;2023-05-06T12:36:42;23.60;11.10
16271;DHT22;8243;49.048;8.396;2023-05-06T12:39:08;23.30;11.20
16271;DHT22;8243;49.048;8.396;2023-05-06T12:44:36;22.80;12.30
16271;DHT22;8243;49.048;8.396;2023-05-06T12:47:07;22.90;12.30
16271;DHT22;8243;49.048;8.396;2023-05-06T12:50:03;23.20;12.60
16271;DHT22;8243;49.048;8.396;2023-05-06T12:52:28;23.50;12.80
16271;DHT22;8243;49.048;8.396;2023-05-06T12:54:55;24.20;11.20
16271;DHT22;8243;49.048;8.396;2023-05-06T12:57:21;24.50;11.70
16271;DHT22;8243;49.048;8.396;2023-05-06T12:59:48;24.40;10.20
16271;DHT22;8243;49.048;8.396;2023-05-06T13:02:14;24.40;9.90
16271;DHT22;8243;49.048;8.396;2023-05-06T13:04:40;24.40;9.20
16271;DHT22;8243;49.048;8.396;2023-05-06T13:07:06;24.40;9.20
16271;DHT22;8243;49.048;8.396;2023-05-06T13:09:32;24.20;9.50
16271;DHT22;8243;49.048;8.396;2023-05-06T13:11:58;24.50;9.70
16271;DHT22;8243;49.048;8.396;2023-05-06T13:14:25;24.60;9.00
16271;DHT22;8243;49.048;8.396;2023-05-06T13:16:50;24.40;9.40
16271;DHT22;8243;49.048;8.396;2023-05-06T13:19:16;24.70;9.20
16271;DHT22;8243;49.048;8.396;2023-05-06T13:21:41;24.80;8.60
16271;DHT22;8243;49.048;8.396;2023-05-06T13:24:08;25.40;8.10
16271;DHT22;8243;49.048;8.396;2023-05-06T13:26:35;25.50;6.90
16271;DHT22;8243;49.048;8.396;2023-05-06T13:29:01;25.30;6.70
16271;DHT22;8243;49.048;8.396;2023-05-06T13:31:27;25.00;7.40
16271;DHT22;8243;49.048;8.396;2023-05-06T13:33:54;25.50;6.50
16271;DHT22;8243;49.048;8.396;2023-05-06T13:36:23;25.70;7.00
16271;DHT22;8243;49.048;8.396;2023-05-06T13:38:49;25.60;6.90
16271;DHT22;8243;49.048;8.396;2023-05-06T13:41:15;25.90;6.10
16271;DHT22;8243;49.048;8.396;2023-05-06T13:43:40;26.10;5.50
16271;DHT22;8243;49.048;8.396;2023-05-06T13:46:09;25.30;5.90
16271;DHT22;8243;49.048;8.396;2023-05-06T13:48:35;24.80;6.00
16271;DHT22;8243;49.048;8.396;2023-05-06T13:51:01;24.80;6.40
16271;DHT22;8243;49.048;8.396;2023-05-06T13:53:26;24.70;6.40
16271;DHT22;8243;49.048;8.396;2023-05-06T13:55:52;24.40;7.00
16271;DHT22;8243;49.048;8.396;2023-05-06T13:58:17;24.50;6.50
16271;DHT22;8243;49.048;8.396;2023-05-06T14:00:43;24.60;6.60
16271;DHT22;8243;49.048;8.396;2023-05-06T14:03:12;24.30;6.50
16271;DHT22;8243;49.048;8.396;2023-05-06T14:05:41;23.80;8.00
16271;DHT22;8243;49.048;8.396;2023-05-06T14:08:06;23.60;7.70
16271;DHT22;8243;49.048;8.396;2023-05-06T14:10:32;23.60;7.80
16271;DHT22;8243;49.048;8.396;2023-05-06T14:12:58;24.00;7.30
16271;DHT22;8243;49.048;8.396;2023-05-06T14:15:24;23.90;7.30
16271;DHT22;8243;49.048;8.396;2023-05-06T14:17:50;24.30;7.50
16271;DHT22;8243;49.048;8.396;2023-05-06T14:20:15;24.50;6.10
16271;DHT22;8243;49.048;8.396;2023-05-06T14:22:41;24.30;6.10
16271;DHT22;8243;49.048;8.396;2023-05-06T14:25:07;24.50;6.80
16271;DHT22;8243;49.048;8.396;2023-05-06T14:27:33;24.70;6.00
16271;DHT22;8243;49.048;8.396;2023-05-06T14:30:00;24.50;6.00
16271;DHT22;8243;49.048;8.396;2023-05-06T14:32:26;24.30;7.70
16271;DHT22;8243;49.048;8.396;2023-05-06T14:34:52;23.90;8.00
16271;DHT22;8243;49.048;8.396;2023-05-06T14:37:17;23.90;8.10
16271;DHT22;8243;49.048;8.396;2023-05-06T14:39:43;24.00;8.00
16271;DHT22;8243;49.048;8.396;2023-05-06T14:42:09;23.90;8.60
16271;DHT22;8243;49.048;8.396;2023-05-06T14:44:34;23.80;8.90
16271;DHT22;8243;49.048;8.396;2023-05-06T14:47:00;23.70;8.70
16271;DHT22;8243;49.048;8.396;2023-05-06T14:49:26;23.70;9.00
16271;DHT22;8243;49.048;8.396;2023-05-06T14:51:51;23.60;9.00
16271;DHT22;8243;49.048;8.396;2023-05-06T14:54:17;23.60;9.00
16271;DHT22;8243;49.048;8.396;2023-05-06T14:56:43;23.60;8.30
16271;DHT22;8243;49.048;8.396;2023-05-06T14:59:14;23.70;8.60
16271;DHT22;8243;49.048;8.396;2023-05-06T15:01:40;23.90;8.20
16271;DHT22;8243;49.048;8.396;2023-05-06T15:04:08;24.40;8.60
16271;DHT22;8243;49.048;8.396;2023-05-06T15:06:36;24.60;8.20
16271;DHT22;8243;49.048;8.396;2023-05-06T15:09:02;24.00;8.10
16271;DHT22;8243;49.048;8.396;2023-05-06T15:11:28;23.70;8.20
16271;DHT22;8243;49.048;8.396;2023-05-06T15:13:54;23.90;8.80
16271;DHT22;8243;49.048;8.396;2023-05-06T15:16:20;24.30;8.60
16271;DHT22;8243;49.048;8.396;2023-05-06T15:18:45;24.70;7.80
16271;DHT22;8243;49.048;8.396;2023-05-06T15:21:11;24.50;7.60
16271;DHT22;8243;49.048;8.396;2023-05-06T15:23:38;24.50;8.10
16271;DHT22;8243;49.048;8.396;2023-05-06T15:26:03;24.00;8.00
16271;DHT22;8243;49.048;8.396;2023-05-06T15:28:29;24.30;8.00
16271;DHT22;8243;49.048;8.396;2023-05-06T15:30:55;24.10;7.90
16271;DHT22;8243;49.048;8.396;2023-05-06T15:33:21;23.90;7.80
16271;DHT22;8243;49.048;8.396;2023-05-06T15:35:47;23.80;8.30
16271;DHT22;8243;49.048;8.396;2023-05-06T15:38:12;23.90;8.20
16271;DHT22;8243;49.048;8.396;2023-05-06T15:40:38;23.70;8.60
16271;DHT22;8243;49.048;8.396;2023-05-06T15:43:07;23.60;8.60
16271;DHT22;8243;49.048;8.396;2023-05-06T15:45:32;23.90;8.80
16271;DHT22;8243;49.048;8.396;2023-05-06T15:47:59;24.10;8.20
16271;DHT22;8243;49.048;8.396;2023-05-06T15:50:24;24.10;7.90
16271;DHT22;8243;49.048;8.396;2023-05-06T15:52:50;24.10;8.20
16271;DHT22;8243;49.048;8.396;2023-05-06T15:55:16;24.10;7.70
16271;DHT22;8243;49.048;8.396;2023-05-06T15:57:41;24.30;7.50
16271;DHT22;8243;49.048;8.396;2023-05-06T16:00:11;24.60;7.40
16271;DHT22;8243;49.048;8.396;2023-05-06T16:02:36;24.80;7.80
16271;DHT22;8243;49.048;8.396;2023-05-06T16:05:02;25.00;7.70
16271;DHT22;8243;49.048;8.396;2023-05-06T16:07:28;24.90;6.60